sensor_id;sensor_type;location;lat;lon;timestamp;temperature;humidity
19864;DHT22;10094;48.820;9.226;2023-04-08T00:04:17;9.60;99.90
19864;DHT22;10094;48.820;9.226;2023-04-08T00:11:00;9.60;99.90
19864;DHT22;10094;48.820;9.226;2023-04-08T00:17:43;9.60;99.90
19864;DHT22;10094;48.820;9.226;2023-04-08T00:24:33;9.60;99.90
19864;DHT22;10094;48.820;9.226;2023-04-08T00:31:15;9.60;99.90
19864;DHT22;10094;48.820;9.226;2023-04-08T00:37:58;9.50;99.90
19864;DHT22;10094;48.820;9.226;2023-04-08T00:44:40;9.40;99.90
19864;DHT22;10094;48.820;9.226;2023-04-08T00:51:23;9.40;99.90
19864;DHT22;10094;48.820;9.226;2023-04-08T00:58:05;9.30;99.90
19864;DHT22;10094;48.820;9.226;2023-04-08T01:05:12;9.30;99.90
19864;DHT22;10094;48.820;9.226;2023-04-08T01:11:55;9.30;99.90
19864;DHT22;10094;48.820;9.226;2023-04-08T01:18:39;9.30;99.90
19864;DHT22;10094;48.820;9.226;2023-04-08T01:25:28;9.20;99.90
19864;DHT22;10094;48.820;9.226;2023-04-08T01:32:11;9.20;99.90
19864;DHT22;10094;48.820;9.226;2023-04-08T01:38:55;9.20;99.90
19864;DHT22;10094;48.820;9.226;2023-04-08T01:45:37;9.20;99.90
19864;DHT22;10094;48.820;9.226;2023-04-08T01:52:21;9.20;99.90
19864;DHT22;10094;48.820;9.226;2023-04-08T01:59:09;9.20;99.90
19864;DHT22;10094;48.820;9.226;2023-04-08T02:05:52;9.20;99.90
19864;DHT22;10094;48.820;9.226;2023-04-08T02:12:35;9.20;99.90
19864;DHT22;10094;48.820;9.226;2023-04-08T02:19:29;9.10;99.90
19864;DHT22;10094;48.820;9.226;2023-04-08T02:26:13;9.10;99.90
19864;DHT22;10094;48.820;9.226;2023-04-08T02:32:57;9.00;99.90
19864;DHT22;10094;48.820;9.226;2023-04-08T02:39:40;9.20;99.90
19864;DHT22;10094;48.820;9.226;2023-04-08T02:46:25;9.20;99.90
19864;DHT22;10094;48.820;9.226;2023-04-08T02:53:08;9.20;99.90
19864;DHT22;10094;48.820;9.226;2023-04-08T02:59:51;9.20;99.90
19864;DHT22;10094;48.820;9.226;2023-04-08T03:06:33;9.10;99.90
19864;DHT22;10094;48.820;9.226;2023-04-08T03:13:16;9.00;99.90
19864;DHT22;10094;48.820;9.226;2023-04-08T03:19:59;9.00;99.90
19864;DHT22;10094;48.820;9.226;2023-04-08T03:26:41;9.10;99.90
19864;DHT22;10094;48.820;9.226;2023-04-08T03:33:24;8.90;99.90
19864;DHT22;10094;48.820;9.226;2023-04-08T03:40:07;8.90;99.90
19864;DHT22;10094;48.820;9.226;2023-04-08T03:46:49;8.80;99.90
19864;DHT22;10094;48.820;9.226;2023-04-08T03:53:32;8.90;99.90
19864;DHT22;10094;48.820;9.226;2023-04-08T04:00:18;8.90;99.90
19864;DHT22;10094;48.820;9.226;2023-04-08T04:07:03;8.80;99.90
19864;DHT22;10094;48.820;9.226;2023-04-08T04:13:45;8.80;99.90
19864;DHT22;10094;48.820;9.226;2023-04-08T04:20:28;8.70;99.90
19864;DHT22;10094;48.820;9.226;2023-04-08T04:27:11;8.60;99.90
19864;DHT22;10094;48.820;9.226;2023-04-08T04:33:53;8.50;99.90
19864;DHT22;10094;48.820;9.226;2023-04-08T04:40:36;8.30;99.90
19864;DHT22;10094;48.820;9.226;2023-04-08T04:47:18;8.20;99.90
19864;DHT22;10094;48.820;9.226;2023-04-08T04:54:01;8.10;99.90
19864;DHT22;10094;48.820;9.226;2023-04-08T05:00:44;8.10;99.90
19864;DHT22;10094;48.820;9.226;2023-04-08T05:07:27;7.90;99.90
19864;DHT22;10094;48.820;9.226;2023-04-08T05:14:10;7.90;99.90
19864;DHT22;10094;48.820;9.226;2023-04-08T05:20:52;7.90;99.90
19864;DHT22;10094;48.820;9.226;2023-04-08T05:27:34;7.90;99.90
19864;DHT22;10094;48.820;9.226;2023-04-08T05:34:17;8.00;99.90
19864;DHT22;10094;48.820;9.226;2023-04-08T05:41:04;7.90;99.90
19864;DHT22;10094;48.820;9.226;2023-04-08T05:47:46;8.10;99.90
19864;DHT22;10094;48.820;9.226;2023-04-08T05:54:29;8.30;99.90
19864;DHT22;10094;48.820;9.226;2023-04-08T06:01:11;8.40;99.90
19864;DHT22;10094;48.820;9.226;2023-04-08T06:07:53;8.40;99.90
19864;DHT22;10094;48.820;9.226;2023-04-08T06:14:36;8.80;99.90
19864;DHT22;10094;48.820;9.226;2023-04-08T06:21:18;9.10;99.90
19864;DHT22;10094;48.820;9.226;2023-04-08T06:28:01;9.10;99.90
19864;DHT22;10094;48.820;9.226;2023-04-08T06:34:44;9.20;99.90
19864;DHT22;10094;48.820;9.226;2023-04-08T06:41:27;9.40;99.90
19864;DHT22;10094;48.820;9.226;2023-04-08T06:48:16;9.40;99.90
19864;DHT22;10094;48.820;9.226;2023-04-08T06:54:59;9.40;99.90
19864;DHT22;10094;48.820;9.226;2023-04-08T07:01:41;9.40;99.90
19864;DHT22;10094;48.820;9.226;2023-04-08T07:08:23;9.50;99.90
19864;DHT22;10094;48.820;9.226;2023-04-08T07:15:06;9.60;99.90
19864;DHT22;10094;48.820;9.226;2023-04-08T07:21:49;10.00;99.90
19864;DHT22;10094;48.820;9.226;2023-04-08T07:28:31;10.20;99.90
19864;DHT22;10094;48.820;9.226;2023-04-08T07:35:14;10.40;99.90
19864;DHT22;10094;48.820;9.226;2023-04-08T07:42:00;10.90;99.90
19864;DHT22;10094;48.820;9.226;2023-04-08T07:48:42;11.20;99.90
19864;DHT22;10094;48.820;9.226;2023-04-08T07:55:24;11.30;99.90
19864;DHT22;10094;48.820;9.226;2023-04-08T08:02:07;11.30;99.90
19864;DHT22;10094;48.820;9.226;2023-04-08T08:08:49;11.50;99.90
19864;DHT22;10094;48.820;9.226;2023-04-08T08:15:32;11.70;99.90
19864;DHT22;10094;48.820;9.226;2023-04-08T08:22:14;11.40;99.90
19864;DHT22;10094;48.820;9.226;2023-04-08T08:28:57;11.70;99.90
19864;DHT22;10094;48.820;9.226;2023-04-08T08:35:39;12.30;99.90
19864;DHT22;10094;48.820;9.226;2023-04-08T08:42:23;13.30;99.90
19864;DHT22;10094;48.820;9.226;2023-04-08T08:49:06;13.30;99.90
19864;DHT22;10094;48.820;9.226;2023-04-08T08:55:48;14.30;99.90
19864;DHT22;10094;48.820;9.226;2023-04-08T09:02:51;13.80;99.90
19864;DHT22;10094;48.820;9.226;2023-04-08T09:09:50;14.10;99.90
19864;DHT22;10094;48.820;9.226;2023-04-08T09:16:33;14.10;99.90
19864;DHT22;10094;48.820;9.226;2023-04-08T09:23:15;15.30;98.50
19864;DHT22;10094;48.820;9.226;2023-04-08T09:30:12;16.40;95.70
19864;DHT22;10094;48.820;9.226;2023-04-08T09:36:55;16.80;93.70
19864;DHT22;10094;48.820;9.226;2023-04-08T09:43:47;16.60;93.10
19864;DHT22;10094;48.820;9.226;2023-04-08T09:50:32;16.80;91.20
19864;DHT22;10094;48.820;9.226;2023-04-08T10:04:20;17.00;84.10
19864;DHT22;10094;48.820;9.226;2023-04-08T10:11:03;18.10;80.30
19864;DHT22;10094;48.820;9.226;2023-04-08T10:17:46;18.40;78.70
19864;DHT22;10094;48.820;9.226;2023-04-08T10:24:29;16.30;81.60
19864;DHT22;10094;48.820;9.226;2023-04-08T10:31:21;14.70;87.30
19864;DHT22;10094;48.820;9.226;2023-04-08T10:38:03;14.70;88.50
19864;DHT22;10094;48.820;9.226;2023-04-08T10:44:46;14.00;90.40
19864;DHT22;10094;48.820;9.226;2023-04-08T10:51:32;13.60;90.70
19864;DHT22;10094;48.820;9.226;2023-04-08T10:58:15;13.30;90.60
19864;DHT22;10094;48.820;9.226;2023-04-08T11:04:58;13.00;91.50
19864;DHT22;10094;48.820;9.226;2023-04-08T11:11:41;12.80;91.40
19864;DHT22;10094;48.820;9.226;2023-04-08T11:18:24;12.70;91.40
19864;DHT22;10094;48.820;9.226;2023-04-08T11:25:07;13.10;91.80
19864;DHT22;10094;48.820;9.226;2023-04-08T11:31:51;13.00;91.70
19864;DHT22;10094;48.820;9.226;2023-04-08T11:38:38;12.30;92.20
19864;DHT22;10094;48.820;9.226;2023-04-08T11:45:21;12.60;92.80
19864;DHT22;10094;48.820;9.226;2023-04-08T11:52:04;12.70;92.30
19864;DHT22;10094;48.820;9.226;2023-04-08T11:58:47;12.60;92.70
19864;DHT22;10094;48.820;9.226;2023-04-08T12:05:29;12.80;92.00
19864;DHT22;10094;48.820;9.226;2023-04-08T12:12:11;12.30;93.10
19864;DHT22;10094;48.820;9.226;2023-04-08T12:18:54;12.30;92.90
19864;DHT22;10094;48.820;9.226;2023-04-08T12:25:36;12.10;93.80
19864;DHT22;10094;48.820;9.226;2023-04-08T12:32:19;12.30;94.10
19864;DHT22;10094;48.820;9.226;2023-04-08T12:39:01;12.40;94.00
19864;DHT22;10094;48.820;9.226;2023-04-08T12:45:43;12.50;93.70
19864;DHT22;10094;48.820;9.226;2023-04-08T12:52:26;13.20;93.00
19864;DHT22;10094;48.820;9.226;2023-04-08T12:59:08;13.00;93.00
19864;DHT22;10094;48.820;9.226;2023-04-08T13:05:51;12.80;94.40
19864;DHT22;10094;48.820;9.226;2023-04-08T13:12:33;13.60;92.90
19864;DHT22;10094;48.820;9.226;2023-04-08T13:19:16;12.90;94.40
19864;DHT22;10094;48.820;9.226;2023-04-08T13:25:58;12.60;96.20
19864;DHT22;10094;48.820;9.226;2023-04-08T13:32:41;13.00;95.10
19864;DHT22;10094;48.820;9.226;2023-04-08T13:39:23;12.90;95.30
19864;DHT22;10094;48.820;9.226;2023-04-08T13:46:06;13.00;95.90
19864;DHT22;10094;48.820;9.226;2023-04-08T13:52:49;12.60;96.30
19864;DHT22;10094;48.820;9.226;2023-04-08T13:59:32;13.00;96.00
19864;DHT22;10094;48.820;9.226;2023-04-08T14:06:15;13.00;95.70
19864;DHT22;10094;48.820;9.226;2023-04-08T14:12:57;13.40;95.30
19864;DHT22;10094;48.820;9.226;2023-04-08T14:19:40;13.30;95.80
19864;DHT22;10094;48.820;9.226;2023-04-08T14:26:23;13.30;95.20
19864;DHT22;10094;48.820;9.226;2023-04-08T14:33:05;13.50;94.50
19864;DHT22;10094;48.820;9.226;2023-04-08T14:39:48;13.30;94.60
19864;DHT22;10094;48.820;9.226;2023-04-08T14:46:31;13.10;93.70
19864;DHT22;10094;48.820;9.226;2023-04-08T14:53:13;12.90;95.10
19864;DHT22;10094;48.820;9.226;2023-04-08T14:59:55;12.70;94.50
19864;DHT22;10094;48.820;9.226;2023-04-08T15:06:38;12.50;95.20
19864;DHT22;10094;48.820;9.226;2023-04-08T15:13:21;12.70;95.00
19864;DHT22;10094;48.820;9.226;2023-04-08T15:20:04;12.70;95.20
19864;DHT22;10094;48.820;9.226;2023-04-08T15:26:47;12.60;96.00
19864;DHT22;10094;48.820;9.226;2023-04-08T15:33:29;12.30;97.20
19864;DHT22;10094;48.820;9.226;2023-04-08T15:40:12;12.00;98.70
19864;DHT22;10094;48.820;9.226;2023-04-08T15:46:55;12.00;99.10
19864;DHT22;10094;48.820;9.226;2023-04-08T15:53:40;12.40;99.30
19864;DHT22;10094;48.820;9.226;2023-04-08T16:00:23;12.10;99.50
19864;DHT22;10094;48.820;9.226;2023-04-08T16:07:05;12.10;99.20
19864;DHT22;10094;48.820;9.226;2023-04-08T16:13:48;12.10;99.70
19864;DHT22;10094;48.820;9.226;2023-04-08T16:20:31;12.10;99.90
19864;DHT22;10094;48.820;9.226;2023-04-08T16:27:13;11.90;99.90
19864;DHT22;10094;48.820;9.226;2023-04-08T16:33:55;11.80;99.90
19864;DHT22;10094;48.820;9.226;2023-04-08T16:40:38;11.60;99.90
19864;DHT22;10094;48.820;9.226;2023-04-08T16:47:20;11.30;99.90
19864;DHT22;10094;48.820;9.226;2023-04-08T16:54:03;11.20;99.90
19864;DHT22;10094;48.820;9.226;2023-04-08T17:00:46;11.20;99.90
19864;DHT22;10094;48.820;9.226;2023-04-08T17:07:28;11.40;99.90
19864;DHT22;10094;48.820;9.226;2023-04-08T17:14:11;11.30;99.90
19864;DHT22;10094;48.820;9.226;2023-04-08T17:20:54;11.30;99.90
19864;DHT22;10094;48.820;9.226;2023-04-08T17:27:37;11.20;99.90
19864;DHT22;10094;48.820;9.226;2023-04-08T17:34:19;11.10;99.90
19864;DHT22;10094;48.820;9.226;2023-04-08T17:41:02;10.90;99.90
19864;DHT22;10094;48.820;9.226;2023-04-08T17:47:45;10.70;99.90
19864;DHT22;10094;48.820;9.226;2023-04-08T17:54:27;10.60;99.90
19864;DHT22;10094;48.820;9.226;2023-04-08T18:01:10;10.80;99.90
19864;DHT22;10094;48.820;9.226;2023-04-08T18:07:52;10.70;99.90
19864;DHT22;10094;48.820;9.226;2023-04-08T18:14:35;10.70;99.90
19864;DHT22;10094;48.820;9.226;2023-04-08T18:21:17;10.70;99.90
19864;DHT22;10094;48.820;9.226;2023-04-08T18:27:59;10.70;99.90
19864;DHT22;10094;48.820;9.226;2023-04-08T18:34:42;10.70;99.90
19864;DHT22;10094;48.820;9.226;2023-04-08T18:41:24;10.70;99.90
19864;DHT22;10094;48.820;9.226;2023-04-08T18:48:07;10.60;99.90
19864;DHT22;10094;48.820;9.226;2023-04-08T18:54:49;10.60;99.90
19864;DHT22;10094;48.820;9.226;2023-04-08T19:01:32;10.50;99.90
19864;DHT22;10094;48.820;9.226;2023-04-08T19:08:17;10.40;99.90
19864;DHT22;10094;48.820;9.226;2023-04-08T19:14:59;10.50;99.90
19864;DHT22;10094;48.820;9.226;2023-04-08T19:21:42;10.50;99.90
19864;DHT22;10094;48.820;9.226;2023-04-08T19:28:24;10.50;99.90
19864;DHT22;10094;48.820;9.226;2023-04-08T19:35:10;10.40;99.90
19864;DHT22;10094;48.820;9.226;2023-04-08T19:41:52;10.50;99.90
19864;DHT22;10094;48.820;9.226;2023-04-08T19:48:35;10.40;99.90
19864;DHT22;10094;48.820;9.226;2023-04-08T19:55:17;10.30;99.90
19864;DHT22;10094;48.820;9.226;2023-04-08T20:02:00;10.30;99.90
19864;DHT22;10094;48.820;9.226;2023-04-08T20:08:44;10.40;99.90
19864;DHT22;10094;48.820;9.226;2023-04-08T20:15:27;10.40;99.90
19864;DHT22;10094;48.820;9.226;2023-04-08T20:22:09;10.40;99.90
19864;DHT22;10094;48.820;9.226;2023-04-08T20:28:52;10.40;99.90
19864;DHT22;10094;48.820;9.226;2023-04-08T20:35:38;10.20;99.90
19864;DHT22;10094;48.820;9.226;2023-04-08T20:42:20;10.10;99.90
19864;DHT22;10094;48.820;9.226;2023-04-08T20:49:03;10.10;99.90
19864;DHT22;10094;48.820;9.226;2023-04-08T20:55:46;10.10;99.90
19864;DHT22;10094;48.820;9.226;2023-04-08T21:02:28;10.10;99.90
19864;DHT22;10094;48.820;9.226;2023-04-08T21:09:11;10.10;99.90
19864;DHT22;10094;48.820;9.226;2023-04-08T21:15:55;9.90;99.90
19864;DHT22;10094;48.820;9.226;2023-04-08T21:22:38;9.70;99.90
19864;DHT22;10094;48.820;9.226;2023-04-08T21:29:21;9.60;99.90
19864;DHT22;10094;48.820;9.226;2023-04-08T21:36:03;9.50;99.90
19864;DHT22;10094;48.820;9.226;2023-04-08T21:42:47;9.50;99.90
19864;DHT22;10094;48.820;9.226;2023-04-08T21:49:29;9.40;99.90
19864;DHT22;10094;48.820;9.226;2023-04-08T21:56:12;9.20;99.90
19864;DHT22;10094;48.820;9.226;2023-04-08T22:02:55;9.00;99.90
19864;DHT22;10094;48.820;9.226;2023-04-08T22:09:37;9.10;99.90
19864;DHT22;10094;48.820;9.226;2023-04-08T22:16:20;9.10;99.90
19864;DHT22;10094;48.820;9.226;2023-04-08T22:23:02;9.00;99.90
19864;DHT22;10094;48.820;9.226;2023-04-08T22:29:45;8.60;99.90
19864;DHT22;10094;48.820;9.226;2023-04-08T22:36:27;8.60;99.90
19864;DHT22;10094;48.820;9.226;2023-04-08T22:43:10;8.50;99.90
19864;DHT22;10094;48.820;9.226;2023-04-08T22:49:52;8.60;99.90
19864;DHT22;10094;48.820;9.226;2023-04-08T22:56:34;8.60;99.90
19864;DHT22;10094;48.820;9.226;2023-04-08T23:03:17;8.60;99.90
19864;DHT22;10094;48.820;9.226;2023-04-08T23:10:00;8.50;99.90
19864;DHT22;10094;48.820;9.226;2023-04-08T23:16:42;8.10;99.90
19864;DHT22;10094;48.820;9.226;2023-04-08T23:23:24;7.90;99.90
19864;DHT22;10094;48.820;9.226;2023-04-08T23:30:07;7.90;99.90
19864;DHT22;10094;48.820;9.226;2023-04-08T23:36:50;8.00;99.90
19864;DHT22;10094;48.820;9.226;2023-04-08T23:43:33;8.10;99.90
19864;DHT22;10094;48.820;9.226;2023-04-08T23:50:15;8.20;99.90
19864;DHT22;10094;48.820;9.226;2023-04-08T23:56:59;8.10;99.90
